sensor_id;sensor_type;location;lat;lon;timestamp;P1;durP1;ratioP1;P2;durP2;ratioP2
61471;SDS011;47337;54.068;12.114;2023-09-30T00:00:44;13.00;;;3.25;;
61471;SDS011;47337;54.068;12.114;2023-09-30T00:03:10;13.68;;;3.08;;
61471;SDS011;47337;54.068;12.114;2023-09-30T00:05:36;13.20;;;2.65;;
61471;SDS011;47337;54.068;12.114;2023-09-30T00:08:02;16.00;;;3.70;;
61471;SDS011;47337;54.068;12.114;2023-09-30T00:10:29;12.60;;;3.13;;
61471;SDS011;47337;54.068;12.114;2023-09-30T00:12:57;15.10;;;3.67;;
61471;SDS011;47337;54.068;12.114;2023-09-30T00:15:23;15.13;;;3.40;;
61471;SDS011;47337;54.068;12.114;2023-09-30T00:17:52;15.77;;;3.22;;
61471;SDS011;47337;54.068;12.114;2023-09-30T00:20:17;17.77;;;3.55;;
61471;SDS011;47337;54.068;12.114;2023-09-30T00:22:43;19.23;;;3.63;;
61471;SDS011;47337;54.068;12.114;2023-09-30T00:25:10;8.35;;;3.40;;
61471;SDS011;47337;54.068;12.114;2023-09-30T00:27:36;8.95;;;2.75;;
61471;SDS011;47337;54.068;12.114;2023-09-30T00:30:02;21.42;;;3.65;;
61471;SDS011;47337;54.068;12.114;2023-09-30T00:32:31;17.60;;;3.60;;
61471;SDS011;47337;54.068;12.114;2023-09-30T00:34:56;14.10;;;2.95;;
61471;SDS011;47337;54.068;12.114;2023-09-30T00:37:22;11.02;;;3.15;;
61471;SDS011;47337;54.068;12.114;2023-09-30T00:39:47;13.68;;;3.10;;
61471;SDS011;47337;54.068;12.114;2023-09-30T00:42:13;14.15;;;3.08;;
61471;SDS011;47337;54.068;12.114;2023-09-30T00:44:38;20.95;;;3.58;;
61471;SDS011;47337;54.068;12.114;2023-09-30T00:47:04;15.30;;;4.07;;
61471;SDS011;47337;54.068;12.114;2023-09-30T00:49:30;12.40;;;2.88;;
61471;SDS011;47337;54.068;12.114;2023-09-30T00:51:58;17.45;;;2.92;;
61471;SDS011;47337;54.068;12.114;2023-09-30T00:54:24;16.88;;;3.50;;
61471;SDS011;47337;54.068;12.114;2023-09-30T00:56:52;19.75;;;3.78;;
61471;SDS011;47337;54.068;12.114;2023-09-30T00:59:21;16.75;;;3.28;;
61471;SDS011;47337;54.068;12.114;2023-09-30T01:01:47;15.48;;;3.10;;
61471;SDS011;47337;54.068;12.114;2023-09-30T01:04:14;14.40;;;4.45;;
61471;SDS011;47337;54.068;12.114;2023-09-30T01:06:39;10.05;;;2.88;;
61471;SDS011;47337;54.068;12.114;2023-09-30T01:09:09;18.52;;;4.25;;
61471;SDS011;47337;54.068;12.114;2023-09-30T01:11:35;11.63;;;3.40;;
61471;SDS011;47337;54.068;12.114;2023-09-30T01:14:01;15.77;;;3.35;;
61471;SDS011;47337;54.068;12.114;2023-09-30T01:16:28;13.63;;;3.20;;
61471;SDS011;47337;54.068;12.114;2023-09-30T01:18:54;10.90;;;2.85;;
61471;SDS011;47337;54.068;12.114;2023-09-30T01:21:19;21.88;;;3.83;;
61471;SDS011;47337;54.068;12.114;2023-09-30T01:23:45;14.95;;;3.30;;
61471;SDS011;47337;54.068;12.114;2023-09-30T01:26:11;14.60;;;3.40;;
61471;SDS011;47337;54.068;12.114;2023-09-30T01:28:38;15.45;;;3.35;;
61471;SDS011;47337;54.068;12.114;2023-09-30T01:31:04;20.17;;;3.85;;
61471;SDS011;47337;54.068;12.114;2023-09-30T01:33:30;13.45;;;3.15;;
61471;SDS011;47337;54.068;12.114;2023-09-30T01:35:57;15.68;;;3.67;;
61471;SDS011;47337;54.068;12.114;2023-09-30T01:38:22;15.70;;;3.65;;
61471;SDS011;47337;54.068;12.114;2023-09-30T01:40:48;14.60;;;3.08;;
61471;SDS011;47337;54.068;12.114;2023-09-30T01:43:16;13.75;;;3.10;;
61471;SDS011;47337;54.068;12.114;2023-09-30T01:45:42;17.83;;;3.45;;
61471;SDS011;47337;54.068;12.114;2023-09-30T01:48:08;16.42;;;3.80;;
61471;SDS011;47337;54.068;12.114;2023-09-30T01:50:39;13.90;;;3.60;;
61471;SDS011;47337;54.068;12.114;2023-09-30T01:53:07;14.43;;;3.40;;
61471;SDS011;47337;54.068;12.114;2023-09-30T01:55:36;14.98;;;3.45;;
61471;SDS011;47337;54.068;12.114;2023-09-30T01:58:02;16.00;;;3.92;;
61471;SDS011;47337;54.068;12.114;2023-09-30T02:00:28;15.05;;;3.30;;
61471;SDS011;47337;54.068;12.114;2023-09-30T02:02:54;15.90;;;3.55;;
61471;SDS011;47337;54.068;12.114;2023-09-30T02:05:21;17.20;;;4.45;;
61471;SDS011;47337;54.068;12.114;2023-09-30T02:07:47;23.75;;;3.78;;
61471;SDS011;47337;54.068;12.114;2023-09-30T02:10:16;13.32;;;3.83;;
61471;SDS011;47337;54.068;12.114;2023-09-30T02:12:43;20.40;;;3.97;;
61471;SDS011;47337;54.068;12.114;2023-09-30T02:15:09;19.60;;;3.35;;
61471;SDS011;47337;54.068;12.114;2023-09-30T02:17:36;15.88;;;3.33;;
61471;SDS011;47337;54.068;12.114;2023-09-30T02:20:04;12.40;;;3.47;;
61471;SDS011;47337;54.068;12.114;2023-09-30T02:22:35;14.60;;;3.67;;
61471;SDS011;47337;54.068;12.114;2023-09-30T02:25:01;13.55;;;3.63;;
61471;SDS011;47337;54.068;12.114;2023-09-30T02:27:26;21.63;;;3.95;;
61471;SDS011;47337;54.068;12.114;2023-09-30T02:29:52;16.58;;;2.75;;
61471;SDS011;47337;54.068;12.114;2023-09-30T02:32:18;13.07;;;3.67;;
61471;SDS011;47337;54.068;12.114;2023-09-30T02:34:43;19.85;;;3.22;;
61471;SDS011;47337;54.068;12.114;2023-09-30T02:37:09;18.42;;;3.85;;
61471;SDS011;47337;54.068;12.114;2023-09-30T02:39:35;12.85;;;4.55;;
61471;SDS011;47337;54.068;12.114;2023-09-30T02:42:02;11.55;;;3.58;;
61471;SDS011;47337;54.068;12.114;2023-09-30T02:44:27;23.13;;;3.60;;
61471;SDS011;47337;54.068;12.114;2023-09-30T02:46:55;19.77;;;3.70;;
61471;SDS011;47337;54.068;12.114;2023-09-30T02:49:21;20.52;;;4.00;;
61471;SDS011;47337;54.068;12.114;2023-09-30T02:51:46;14.95;;;3.63;;
61471;SDS011;47337;54.068;12.114;2023-09-30T02:54:15;16.02;;;4.20;;
61471;SDS011;47337;54.068;12.114;2023-09-30T02:56:41;13.68;;;3.30;;
61471;SDS011;47337;54.068;12.114;2023-09-30T02:59:06;13.75;;;3.42;;
61471;SDS011;47337;54.068;12.114;2023-09-30T03:01:32;17.02;;;4.00;;
61471;SDS011;47337;54.068;12.114;2023-09-30T03:04:00;18.77;;;3.72;;
61471;SDS011;47337;54.068;12.114;2023-09-30T03:06:25;17.90;;;4.05;;
61471;SDS011;47337;54.068;12.114;2023-09-30T03:08:51;19.27;;;4.82;;
61471;SDS011;47337;54.068;12.114;2023-09-30T03:11:17;17.73;;;3.17;;
61471;SDS011;47337;54.068;12.114;2023-09-30T03:13:44;15.93;;;4.10;;
61471;SDS011;47337;54.068;12.114;2023-09-30T03:16:10;20.90;;;4.10;;
61471;SDS011;47337;54.068;12.114;2023-09-30T03:18:38;23.00;;;4.07;;
61471;SDS011;47337;54.068;12.114;2023-09-30T03:21:13;16.02;;;3.85;;
61471;SDS011;47337;54.068;12.114;2023-09-30T03:23:39;17.05;;;3.47;;
61471;SDS011;47337;54.068;12.114;2023-09-30T03:26:05;14.80;;;4.20;;
61471;SDS011;47337;54.068;12.114;2023-09-30T03:28:38;21.05;;;4.97;;
61471;SDS011;47337;54.068;12.114;2023-09-30T03:31:04;24.55;;;4.20;;
61471;SDS011;47337;54.068;12.114;2023-09-30T03:33:33;21.55;;;3.95;;
61471;SDS011;47337;54.068;12.114;2023-09-30T03:35:59;20.27;;;5.00;;
61471;SDS011;47337;54.068;12.114;2023-09-30T03:38:25;13.07;;;3.63;;
61471;SDS011;47337;54.068;12.114;2023-09-30T03:40:51;22.05;;;3.97;;
61471;SDS011;47337;54.068;12.114;2023-09-30T03:43:19;20.38;;;4.72;;
61471;SDS011;47337;54.068;12.114;2023-09-30T03:45:46;17.70;;;4.00;;
61471;SDS011;47337;54.068;12.114;2023-09-30T03:48:14;23.77;;;4.97;;
61471;SDS011;47337;54.068;12.114;2023-09-30T03:50:39;24.15;;;4.22;;
61471;SDS011;47337;54.068;12.114;2023-09-30T03:53:08;16.33;;;4.82;;
61471;SDS011;47337;54.068;12.114;2023-09-30T03:55:36;18.33;;;4.80;;
61471;SDS011;47337;54.068;12.114;2023-09-30T03:58:02;17.80;;;5.07;;
61471;SDS011;47337;54.068;12.114;2023-09-30T04:00:29;14.68;;;4.10;;
61471;SDS011;47337;54.068;12.114;2023-09-30T04:02:54;19.52;;;5.18;;
61471;SDS011;47337;54.068;12.114;2023-09-30T04:05:23;16.00;;;5.32;;
61471;SDS011;47337;54.068;12.114;2023-09-30T04:07:54;23.10;;;4.90;;
61471;SDS011;47337;54.068;12.114;2023-09-30T04:10:24;19.02;;;4.53;;
61471;SDS011;47337;54.068;12.114;2023-09-30T04:12:50;15.73;;;4.60;;
61471;SDS011;47337;54.068;12.114;2023-09-30T04:15:19;15.05;;;4.32;;
61471;SDS011;47337;54.068;12.114;2023-09-30T04:17:44;19.38;;;4.93;;
61471;SDS011;47337;54.068;12.114;2023-09-30T04:20:12;17.13;;;4.32;;
61471;SDS011;47337;54.068;12.114;2023-09-30T04:22:42;16.98;;;4.97;;
61471;SDS011;47337;54.068;12.114;2023-09-30T04:25:17;24.15;;;5.82;;
61471;SDS011;47337;54.068;12.114;2023-09-30T04:27:46;18.17;;;4.32;;
61471;SDS011;47337;54.068;12.114;2023-09-30T04:30:12;27.27;;;5.10;;
61471;SDS011;47337;54.068;12.114;2023-09-30T04:32:40;19.92;;;5.30;;
61471;SDS011;47337;54.068;12.114;2023-09-30T04:35:08;14.70;;;4.45;;
61471;SDS011;47337;54.068;12.114;2023-09-30T04:37:42;17.70;;;4.40;;
61471;SDS011;47337;54.068;12.114;2023-09-30T04:40:08;26.73;;;4.50;;
61471;SDS011;47337;54.068;12.114;2023-09-30T04:42:43;18.38;;;4.13;;
61471;SDS011;47337;54.068;12.114;2023-09-30T04:45:10;23.30;;;4.90;;
61471;SDS011;47337;54.068;12.114;2023-09-30T04:47:36;15.55;;;4.20;;
61471;SDS011;47337;54.068;12.114;2023-09-30T04:50:04;23.17;;;4.88;;
61471;SDS011;47337;54.068;12.114;2023-09-30T04:52:32;15.90;;;4.47;;
61471;SDS011;47337;54.068;12.114;2023-09-30T04:55:00;26.88;;;5.25;;
61471;SDS011;47337;54.068;12.114;2023-09-30T04:57:29;27.70;;;5.38;;
61471;SDS011;47337;54.068;12.114;2023-09-30T04:59:57;17.33;;;4.40;;
61471;SDS011;47337;54.068;12.114;2023-09-30T05:02:23;18.67;;;4.47;;
61471;SDS011;47337;54.068;12.114;2023-09-30T05:04:49;15.82;;;4.63;;
61471;SDS011;47337;54.068;12.114;2023-09-30T05:07:15;23.65;;;5.75;;
61471;SDS011;47337;54.068;12.114;2023-09-30T05:09:43;18.40;;;4.65;;
61471;SDS011;47337;54.068;12.114;2023-09-30T05:12:09;17.63;;;4.63;;
61471;SDS011;47337;54.068;12.114;2023-09-30T05:14:36;17.60;;;5.20;;
61471;SDS011;47337;54.068;12.114;2023-09-30T05:17:03;26.15;;;5.65;;
61471;SDS011;47337;54.068;12.114;2023-09-30T05:19:30;26.13;;;5.03;;
61471;SDS011;47337;54.068;12.114;2023-09-30T05:21:57;22.58;;;5.30;;
61471;SDS011;47337;54.068;12.114;2023-09-30T05:24:23;26.35;;;5.55;;
61471;SDS011;47337;54.068;12.114;2023-09-30T05:26:48;16.27;;;4.57;;
61471;SDS011;47337;54.068;12.114;2023-09-30T05:29:14;20.75;;;4.65;;
61471;SDS011;47337;54.068;12.114;2023-09-30T05:31:39;19.33;;;4.68;;
61471;SDS011;47337;54.068;12.114;2023-09-30T05:34:07;19.02;;;4.88;;
61471;SDS011;47337;54.068;12.114;2023-09-30T05:36:32;18.60;;;4.75;;
61471;SDS011;47337;54.068;12.114;2023-09-30T05:39:01;19.17;;;4.85;;
61471;SDS011;47337;54.068;12.114;2023-09-30T05:41:29;28.80;;;5.00;;
61471;SDS011;47337;54.068;12.114;2023-09-30T05:43:58;27.05;;;5.00;;
61471;SDS011;47337;54.068;12.114;2023-09-30T05:46:26;19.23;;;4.93;;
61471;SDS011;47337;54.068;12.114;2023-09-30T05:48:55;24.23;;;5.88;;
61471;SDS011;47337;54.068;12.114;2023-09-30T05:51:21;18.63;;;4.68;;
61471;SDS011;47337;54.068;12.114;2023-09-30T05:53:46;16.02;;;4.85;;
61471;SDS011;47337;54.068;12.114;2023-09-30T05:56:15;13.95;;;4.43;;
61471;SDS011;47337;54.068;12.114;2023-09-30T05:58:41;20.50;;;5.05;;
61471;SDS011;47337;54.068;12.114;2023-09-30T06:01:09;17.35;;;4.88;;
61471;SDS011;47337;54.068;12.114;2023-09-30T06:03:44;19.10;;;5.40;;
61471;SDS011;47337;54.068;12.114;2023-09-30T06:06:14;27.13;;;5.22;;
61471;SDS011;47337;54.068;12.114;2023-09-30T06:08:43;11.70;;;3.58;;
61471;SDS011;47337;54.068;12.114;2023-09-30T06:11:19;18.58;;;4.38;;
61471;SDS011;47337;54.068;12.114;2023-09-30T06:13:49;21.77;;;4.45;;
61471;SDS011;47337;54.068;12.114;2023-09-30T06:16:20;17.27;;;4.55;;
61471;SDS011;47337;54.068;12.114;2023-09-30T06:18:46;18.80;;;5.40;;
61471;SDS011;47337;54.068;12.114;2023-09-30T06:21:14;18.58;;;4.18;;
61471;SDS011;47337;54.068;12.114;2023-09-30T06:23:45;15.45;;;4.25;;
61471;SDS011;47337;54.068;12.114;2023-09-30T06:26:10;16.83;;;4.20;;
61471;SDS011;47337;54.068;12.114;2023-09-30T06:28:36;21.20;;;4.63;;
61471;SDS011;47337;54.068;12.114;2023-09-30T06:31:09;15.32;;;4.13;;
61471;SDS011;47337;54.068;12.114;2023-09-30T06:33:39;13.95;;;4.10;;
61471;SDS011;47337;54.068;12.114;2023-09-30T06:36:23;13.95;;;3.97;;
61471;SDS011;47337;54.068;12.114;2023-09-30T06:38:51;17.95;;;4.22;;
61471;SDS011;47337;54.068;12.114;2023-09-30T06:41:17;18.30;;;3.85;;
61471;SDS011;47337;54.068;12.114;2023-09-30T06:43:43;15.57;;;3.55;;
61471;SDS011;47337;54.068;12.114;2023-09-30T06:46:09;15.35;;;3.13;;
61471;SDS011;47337;54.068;12.114;2023-09-30T06:48:35;13.00;;;3.63;;
61471;SDS011;47337;54.068;12.114;2023-09-30T06:51:05;10.43;;;3.22;;
61471;SDS011;47337;54.068;12.114;2023-09-30T06:53:40;12.82;;;3.63;;
61471;SDS011;47337;54.068;12.114;2023-09-30T06:56:05;14.20;;;3.35;;
61471;SDS011;47337;54.068;12.114;2023-09-30T06:58:31;10.23;;;3.35;;
61471;SDS011;47337;54.068;12.114;2023-09-30T07:00:57;10.63;;;3.03;;
61471;SDS011;47337;54.068;12.114;2023-09-30T07:03:24;13.45;;;3.40;;
61471;SDS011;47337;54.068;12.114;2023-09-30T07:05:50;14.90;;;3.20;;
61471;SDS011;47337;54.068;12.114;2023-09-30T07:08:18;12.38;;;3.00;;
61471;SDS011;47337;54.068;12.114;2023-09-30T07:10:46;12.48;;;3.42;;
61471;SDS011;47337;54.068;12.114;2023-09-30T07:13:14;10.80;;;3.38;;
61471;SDS011;47337;54.068;12.114;2023-09-30T07:15:44;11.38;;;3.10;;
61471;SDS011;47337;54.068;12.114;2023-09-30T07:18:09;12.45;;;2.92;;
61471;SDS011;47337;54.068;12.114;2023-09-30T07:20:36;14.32;;;3.00;;
61471;SDS011;47337;54.068;12.114;2023-09-30T07:23:01;8.27;;;2.85;;
61471;SDS011;47337;54.068;12.114;2023-09-30T07:25:30;10.38;;;3.28;;
61471;SDS011;47337;54.068;12.114;2023-09-30T07:27:59;12.07;;;3.35;;
61471;SDS011;47337;54.068;12.114;2023-09-30T07:30:25;12.07;;;2.97;;
61471;SDS011;47337;54.068;12.114;2023-09-30T07:32:51;12.20;;;2.90;;
61471;SDS011;47337;54.068;12.114;2023-09-30T07:35:19;9.90;;;2.95;;
61471;SDS011;47337;54.068;12.114;2023-09-30T07:37:46;9.00;;;3.28;;
61471;SDS011;47337;54.068;12.114;2023-09-30T07:40:12;10.05;;;2.95;;
61471;SDS011;47337;54.068;12.114;2023-09-30T07:42:38;12.68;;;3.53;;
61471;SDS011;47337;54.068;12.114;2023-09-30T07:45:03;9.32;;;2.47;;
61471;SDS011;47337;54.068;12.114;2023-09-30T07:47:31;9.43;;;2.75;;
61471;SDS011;47337;54.068;12.114;2023-09-30T07:49:59;11.63;;;2.97;;
61471;SDS011;47337;54.068;12.114;2023-09-30T07:52:31;14.15;;;3.00;;
61471;SDS011;47337;54.068;12.114;2023-09-30T07:54:56;13.93;;;2.80;;
61471;SDS011;47337;54.068;12.114;2023-09-30T07:57:24;13.27;;;3.22;;
61471;SDS011;47337;54.068;12.114;2023-09-30T07:59:49;10.45;;;2.70;;
61471;SDS011;47337;54.068;12.114;2023-09-30T08:02:17;12.82;;;3.95;;
61471;SDS011;47337;54.068;12.114;2023-09-30T08:04:43;12.52;;;3.40;;
61471;SDS011;47337;54.068;12.114;2023-09-30T08:07:08;11.88;;;2.95;;
61471;SDS011;47337;54.068;12.114;2023-09-30T08:09:34;14.57;;;3.08;;
61471;SDS011;47337;54.068;12.114;2023-09-30T08:12:00;19.17;;;3.50;;
61471;SDS011;47337;54.068;12.114;2023-09-30T08:14:25;12.15;;;2.80;;
61471;SDS011;47337;54.068;12.114;2023-09-30T08:16:53;14.18;;;3.35;;
61471;SDS011;47337;54.068;12.114;2023-09-30T08:19:19;14.82;;;3.20;;
61471;SDS011;47337;54.068;12.114;2023-09-30T08:21:46;13.20;;;4.07;;
61471;SDS011;47337;54.068;12.114;2023-09-30T08:24:12;13.30;;;3.33;;
61471;SDS011;47337;54.068;12.114;2023-09-30T08:26:37;10.93;;;3.25;;
61471;SDS011;47337;54.068;12.114;2023-09-30T08:29:03;9.77;;;3.30;;
61471;SDS011;47337;54.068;12.114;2023-09-30T08:31:28;7.97;;;2.53;;
61471;SDS011;47337;54.068;12.114;2023-09-30T08:33:54;13.25;;;3.25;;
61471;SDS011;47337;54.068;12.114;2023-09-30T08:36:19;10.55;;;3.28;;
61471;SDS011;47337;54.068;12.114;2023-09-30T08:38:45;11.60;;;3.75;;
61471;SDS011;47337;54.068;12.114;2023-09-30T08:41:11;10.98;;;2.75;;
61471;SDS011;47337;54.068;12.114;2023-09-30T08:44:01;10.48;;;2.88;;
61471;SDS011;47337;54.068;12.114;2023-09-30T08:46:31;10.05;;;3.35;;
61471;SDS011;47337;54.068;12.114;2023-09-30T08:49:03;13.88;;;2.83;;
61471;SDS011;47337;54.068;12.114;2023-09-30T08:51:34;14.93;;;3.70;;
61471;SDS011;47337;54.068;12.114;2023-09-30T08:54:03;10.50;;;2.90;;
61471;SDS011;47337;54.068;12.114;2023-09-30T08:56:30;10.88;;;3.20;;
61471;SDS011;47337;54.068;12.114;2023-09-30T08:58:59;11.98;;;3.05;;
61471;SDS011;47337;54.068;12.114;2023-09-30T09:01:28;11.98;;;3.17;;
61471;SDS011;47337;54.068;12.114;2023-09-30T09:03:57;10.07;;;3.10;;
61471;SDS011;47337;54.068;12.114;2023-09-30T09:06:25;15.68;;;3.13;;
61471;SDS011;47337;54.068;12.114;2023-09-30T09:08:53;11.07;;;2.92;;
61471;SDS011;47337;54.068;12.114;2023-09-30T09:11:19;16.00;;;3.20;;
61471;SDS011;47337;54.068;12.114;2023-09-30T09:13:45;15.32;;;3.03;;
61471;SDS011;47337;54.068;12.114;2023-09-30T09:16:21;12.20;;;2.90;;
61471;SDS011;47337;54.068;12.114;2023-09-30T09:18:47;13.07;;;2.67;;
61471;SDS011;47337;54.068;12.114;2023-09-30T09:21:14;9.38;;;2.78;;
61471;SDS011;47337;54.068;12.114;2023-09-30T09:23:43;8.23;;;2.45;;
61471;SDS011;47337;54.068;12.114;2023-09-30T09:26:31;10.73;;;2.75;;
61471;SDS011;47337;54.068;12.114;2023-09-30T09:29:00;13.32;;;3.38;;
61471;SDS011;47337;54.068;12.114;2023-09-30T09:33:54;12.38;;;2.90;;
61471;SDS011;47337;54.068;12.114;2023-09-30T09:36:37;14.55;;;2.60;;
61471;SDS011;47337;54.068;12.114;2023-09-30T09:39:07;12.43;;;2.97;;
61471;SDS011;47337;54.068;12.114;2023-09-30T09:44:16;10.55;;;2.72;;
61471;SDS011;47337;54.068;12.114;2023-09-30T09:46:44;16.27;;;3.05;;
61471;SDS011;47337;54.068;12.114;2023-09-30T09:49:16;11.02;;;2.47;;
61471;SDS011;47337;54.068;12.114;2023-09-30T09:51:46;10.65;;;2.30;;
61471;SDS011;47337;54.068;12.114;2023-09-30T09:54:13;13.18;;;2.70;;
61471;SDS011;47337;54.068;12.114;2023-09-30T09:56:40;12.32;;;2.33;;
61471;SDS011;47337;54.068;12.114;2023-09-30T09:59:08;11.93;;;2.63;;
61471;SDS011;47337;54.068;12.114;2023-09-30T10:01:36;11.32;;;2.63;;
61471;SDS011;47337;54.068;12.114;2023-09-30T10:04:04;13.52;;;2.72;;
61471;SDS011;47337;54.068;12.114;2023-09-30T10:06:30;12.90;;;2.90;;
61471;SDS011;47337;54.068;12.114;2023-09-30T10:09:03;11.60;;;2.40;;
61471;SDS011;47337;54.068;12.114;2023-09-30T10:11:34;8.23;;;2.72;;
61471;SDS011;47337;54.068;12.114;2023-09-30T10:14:00;10.90;;;2.08;;
61471;SDS011;47337;54.068;12.114;2023-09-30T10:21:40;14.13;;;2.40;;
61471;SDS011;47337;54.068;12.114;2023-09-30T10:24:56;9.70;;;2.20;;
61471;SDS011;47337;54.068;12.114;2023-09-30T10:35:15;13.02;;;2.50;;
61471;SDS011;47337;54.068;12.114;2023-09-30T10:40:52;9.07;;;1.88;;
61471;SDS011;47337;54.068;12.114;2023-09-30T10:43:31;7.30;;;1.85;;
61471;SDS011;47337;54.068;12.114;2023-09-30T10:45:57;9.20;;;1.98;;
61471;SDS011;47337;54.068;12.114;2023-09-30T10:53:53;8.02;;;1.70;;
61471;SDS011;47337;54.068;12.114;2023-09-30T10:56:22;6.40;;;1.55;;
61471;SDS011;47337;54.068;12.114;2023-09-30T10:58:48;8.93;;;1.98;;
61471;SDS011;47337;54.068;12.114;2023-09-30T11:01:15;7.00;;;1.58;;
61471;SDS011;47337;54.068;12.114;2023-09-30T11:03:43;7.90;;;1.75;;
61471;SDS011;47337;54.068;12.114;2023-09-30T11:06:12;7.28;;;2.13;;
61471;SDS011;47337;54.068;12.114;2023-09-30T11:08:44;4.70;;;1.38;;
61471;SDS011;47337;54.068;12.114;2023-09-30T11:11:13;7.43;;;1.75;;
61471;SDS011;47337;54.068;12.114;2023-09-30T11:13:39;6.13;;;1.60;;
61471;SDS011;47337;54.068;12.114;2023-09-30T11:16:05;5.15;;;1.48;;
61471;SDS011;47337;54.068;12.114;2023-09-30T11:18:31;3.88;;;1.35;;
61471;SDS011;47337;54.068;12.114;2023-09-30T11:21:30;9.98;;;1.65;;
61471;SDS011;47337;54.068;12.114;2023-09-30T11:23:49;10.70;;;1.85;;
61471;SDS011;47337;54.068;12.114;2023-09-30T11:26:22;7.47;;;1.58;;
61471;SDS011;47337;54.068;12.114;2023-09-30T11:29:04;9.18;;;1.73;;
61471;SDS011;47337;54.068;12.114;2023-09-30T11:31:42;7.28;;;1.70;;
61471;SDS011;47337;54.068;12.114;2023-09-30T11:34:09;9.85;;;2.13;;
61471;SDS011;47337;54.068;12.114;2023-09-30T11:36:37;8.45;;;1.70;;
61471;SDS011;47337;54.068;12.114;2023-09-30T11:39:08;6.88;;;2.08;;
61471;SDS011;47337;54.068;12.114;2023-09-30T11:44:06;3.40;;;1.25;;
61471;SDS011;47337;54.068;12.114;2023-09-30T11:49:34;8.52;;;1.67;;
61471;SDS011;47337;54.068;12.114;2023-09-30T11:52:11;6.15;;;1.65;;
61471;SDS011;47337;54.068;12.114;2023-09-30T11:54:41;7.68;;;1.08;;
61471;SDS011;47337;54.068;12.114;2023-09-30T11:57:14;6.40;;;1.90;;
61471;SDS011;47337;54.068;12.114;2023-09-30T11:59:40;5.90;;;1.50;;
61471;SDS011;47337;54.068;12.114;2023-09-30T12:02:09;8.80;;;1.65;;
61471;SDS011;47337;54.068;12.114;2023-09-30T12:04:36;6.63;;;1.30;;
61471;SDS011;47337;54.068;12.114;2023-09-30T12:07:05;5.45;;;1.50;;
61471;SDS011;47337;54.068;12.114;2023-09-30T12:09:32;12.35;;;1.88;;
61471;SDS011;47337;54.068;12.114;2023-09-30T12:11:57;8.35;;;1.58;;
61471;SDS011;47337;54.068;12.114;2023-09-30T12:14:23;6.35;;;1.27;;
61471;SDS011;47337;54.068;12.114;2023-09-30T12:16:49;10.20;;;1.95;;
61471;SDS011;47337;54.068;12.114;2023-09-30T12:19:17;8.38;;;1.73;;
61471;SDS011;47337;54.068;12.114;2023-09-30T12:21:43;7.88;;;2.08;;
61471;SDS011;47337;54.068;12.114;2023-09-30T12:24:11;6.65;;;1.98;;
61471;SDS011;47337;54.068;12.114;2023-09-30T12:26:41;9.05;;;1.75;;
61471;SDS011;47337;54.068;12.114;2023-09-30T12:29:07;7.13;;;1.83;;
61471;SDS011;47337;54.068;12.114;2023-09-30T12:31:34;8.15;;;1.50;;
61471;SDS011;47337;54.068;12.114;2023-09-30T12:33:59;5.75;;;1.70;;
61471;SDS011;47337;54.068;12.114;2023-09-30T12:36:25;6.15;;;1.58;;
61471;SDS011;47337;54.068;12.114;2023-09-30T12:38:53;10.40;;;1.83;;
61471;SDS011;47337;54.068;12.114;2023-09-30T12:41:18;7.70;;;1.55;;
61471;SDS011;47337;54.068;12.114;2023-09-30T12:43:46;9.38;;;1.65;;
61471;SDS011;47337;54.068;12.114;2023-09-30T12:46:13;7.88;;;1.63;;
61471;SDS011;47337;54.068;12.114;2023-09-30T12:48:39;7.38;;;1.75;;
61471;SDS011;47337;54.068;12.114;2023-09-30T12:51:05;8.93;;;1.65;;
61471;SDS011;47337;54.068;12.114;2023-09-30T12:53:32;7.25;;;1.73;;
61471;SDS011;47337;54.068;12.114;2023-09-30T12:56:00;7.97;;;1.75;;
61471;SDS011;47337;54.068;12.114;2023-09-30T12:58:26;10.02;;;2.13;;
61471;SDS011;47337;54.068;12.114;2023-09-30T13:00:53;7.72;;;1.58;;
61471;SDS011;47337;54.068;12.114;2023-09-30T13:03:20;8.57;;;2.25;;
61471;SDS011;47337;54.068;12.114;2023-09-30T13:05:45;6.15;;;1.33;;
61471;SDS011;47337;54.068;12.114;2023-09-30T13:08:11;9.10;;;1.60;;
61471;SDS011;47337;54.068;12.114;2023-09-30T13:10:37;7.00;;;1.80;;
61471;SDS011;47337;54.068;12.114;2023-09-30T13:13:03;5.03;;;1.90;;
61471;SDS011;47337;54.068;12.114;2023-09-30T13:15:29;6.40;;;1.70;;
61471;SDS011;47337;54.068;12.114;2023-09-30T13:17:54;6.72;;;1.95;;
61471;SDS011;47337;54.068;12.114;2023-09-30T13:20:19;5.38;;;2.20;;
61471;SDS011;47337;54.068;12.114;2023-09-30T13:22:47;7.10;;;1.80;;
61471;SDS011;47337;54.068;12.114;2023-09-30T13:25:13;3.97;;;1.13;;
61471;SDS011;47337;54.068;12.114;2023-09-30T13:27:41;6.50;;;1.80;;
61471;SDS011;47337;54.068;12.114;2023-09-30T13:30:07;6.03;;;1.38;;
61471;SDS011;47337;54.068;12.114;2023-09-30T13:32:35;5.57;;;1.48;;
61471;SDS011;47337;54.068;12.114;2023-09-30T13:35:02;4.78;;;1.13;;
61471;SDS011;47337;54.068;12.114;2023-09-30T13:37:30;7.20;;;1.73;;
61471;SDS011;47337;54.068;12.114;2023-09-30T13:39:58;6.43;;;1.60;;
61471;SDS011;47337;54.068;12.114;2023-09-30T13:42:24;7.50;;;1.52;;
61471;SDS011;47337;54.068;12.114;2023-09-30T13:44:50;5.72;;;1.65;;
61471;SDS011;47337;54.068;12.114;2023-09-30T13:47:17;9.60;;;1.95;;
61471;SDS011;47337;54.068;12.114;2023-09-30T13:49:43;7.30;;;1.90;;
61471;SDS011;47337;54.068;12.114;2023-09-30T13:52:08;7.60;;;1.73;;
61471;SDS011;47337;54.068;12.114;2023-09-30T13:54:33;9.02;;;1.50;;
61471;SDS011;47337;54.068;12.114;2023-09-30T13:56:59;9.40;;;1.83;;
61471;SDS011;47337;54.068;12.114;2023-09-30T13:59:24;6.90;;;1.48;;
61471;SDS011;47337;54.068;12.114;2023-09-30T14:01:50;4.35;;;1.30;;
61471;SDS011;47337;54.068;12.114;2023-09-30T14:04:15;10.30;;;1.90;;
61471;SDS011;47337;54.068;12.114;2023-09-30T14:06:41;7.63;;;2.17;;
61471;SDS011;47337;54.068;12.114;2023-09-30T14:09:10;5.22;;;2.08;;
61471;SDS011;47337;54.068;12.114;2023-09-30T14:11:40;9.50;;;1.75;;
61471;SDS011;47337;54.068;12.114;2023-09-30T14:14:09;7.78;;;2.13;;
61471;SDS011;47337;54.068;12.114;2023-09-30T14:16:35;7.32;;;1.73;;
61471;SDS011;47337;54.068;12.114;2023-09-30T14:19:02;5.38;;;1.25;;
61471;SDS011;47337;54.068;12.114;2023-09-30T14:21:27;9.15;;;2.22;;
61471;SDS011;47337;54.068;12.114;2023-09-30T14:23:53;7.32;;;1.83;;
61471;SDS011;47337;54.068;12.114;2023-09-30T14:26:19;8.43;;;1.95;;
61471;SDS011;47337;54.068;12.114;2023-09-30T14:28:44;5.82;;;1.88;;
61471;SDS011;47337;54.068;12.114;2023-09-30T14:31:10;5.93;;;1.45;;
61471;SDS011;47337;54.068;12.114;2023-09-30T14:33:35;6.90;;;1.60;;
61471;SDS011;47337;54.068;12.114;2023-09-30T14:36:02;12.68;;;2.20;;
61471;SDS011;47337;54.068;12.114;2023-09-30T14:38:30;7.93;;;1.70;;
61471;SDS011;47337;54.068;12.114;2023-09-30T14:40:56;7.47;;;1.35;;
61471;SDS011;47337;54.068;12.114;2023-09-30T14:43:21;5.93;;;1.52;;
61471;SDS011;47337;54.068;12.114;2023-09-30T14:45:47;7.53;;;2.08;;
61471;SDS011;47337;54.068;12.114;2023-09-30T14:48:14;6.18;;;1.70;;
61471;SDS011;47337;54.068;12.114;2023-09-30T14:50:52;7.07;;;2.00;;
61471;SDS011;47337;54.068;12.114;2023-09-30T14:53:20;6.53;;;1.63;;
61471;SDS011;47337;54.068;12.114;2023-09-30T14:55:48;6.10;;;1.55;;
61471;SDS011;47337;54.068;12.114;2023-09-30T14:58:16;15.18;;;1.90;;
61471;SDS011;47337;54.068;12.114;2023-09-30T15:00:44;6.22;;;1.42;;